createdAt,value
2017-11-10T00:00:52.591Z,31.80
2017-11-10T00:03:18.990Z,26.83
2017-11-10T00:05:46.231Z,29.75
2017-11-10T00:08:12.561Z,31.45
2017-11-10T00:10:38.955Z,30.25
2017-11-10T00:13:05.301Z,36.90
2017-11-10T00:15:34.991Z,31.08
2017-11-10T00:18:01.328Z,32.00
2017-11-10T00:20:27.792Z,28.30
2017-11-10T00:22:54.136Z,28.10
2017-11-10T00:25:20.471Z,27.77
2017-11-10T00:27:46.821Z,30.25
2017-11-10T00:30:13.894Z,26.00
2017-11-10T00:32:42.229Z,27.37
2017-11-10T00:35:08.609Z,27.95
2017-11-10T00:37:35.377Z,25.12
2017-11-10T00:40:01.686Z,22.92
2017-11-10T00:42:30.014Z,22.25
2017-11-10T00:44:56.325Z,27.70
2017-11-10T00:47:22.647Z,29.33
2017-11-10T00:49:48.966Z,21.77
2017-11-10T00:52:15.290Z,23.48
2017-11-10T00:54:41.634Z,21.73
2017-11-10T00:57:07.959Z,25.52
2017-11-10T00:59:34.293Z,19.42
2017-11-10T01:02:01.435Z,19.87
2017-11-10T01:04:27.907Z,26.45
2017-11-10T01:06:54.969Z,26.95
2017-11-10T01:09:21.309Z,22.87
2017-11-10T01:11:47.633Z,26.95
2017-11-10T01:14:13.983Z,24.05
2017-11-10T01:16:40.317Z,23.92
2017-11-10T01:19:06.648Z,22.73
2017-11-10T01:21:32.992Z,23.48
2017-11-10T01:23:59.330Z,22.20
2017-11-10T01:26:27.249Z,26.98
2017-11-10T01:28:56.915Z,22.42
2017-11-10T01:31:23.254Z,21.58
2017-11-10T01:33:49.561Z,26.12
2017-11-10T01:36:16.645Z,19.65
2017-11-10T01:38:43.695Z,21.20
2017-11-10T01:41:10.769Z,21.02
2017-11-10T01:43:40.038Z,17.75
2017-11-10T01:46:06.142Z,17.85
2017-11-10T01:48:38.258Z,17.33
2017-11-10T01:51:04.578Z,16.95
2017-11-10T01:53:30.898Z,14.80
2017-11-10T01:55:57.961Z,14.10
2017-11-10T01:58:25.041Z,14.68
2017-11-10T02:00:52.143Z,14.75
2017-11-10T02:03:18.265Z,18.40
2017-11-10T02:05:44.632Z,13.75
2017-11-10T02:08:10.999Z,13.40
2017-11-10T02:10:37.405Z,14.27
2017-11-10T02:13:04.466Z,14.35
2017-11-10T02:15:30.831Z,13.50
2017-11-10T02:17:57.197Z,15.38
2017-11-10T02:20:23.529Z,14.77
2017-11-10T02:22:49.894Z,16.52
2017-11-10T02:25:16.242Z,14.98
2017-11-10T02:27:45.222Z,14.77
2017-11-10T02:30:11.607Z,18.73
2017-11-10T02:32:38.023Z,21.30
2017-11-10T02:35:05.114Z,20.23
2017-11-10T02:37:31.470Z,17.60
2017-11-10T02:39:57.846Z,22.42
2017-11-10T02:42:24.234Z,27.00
2017-11-10T02:44:53.393Z,22.15
2017-11-10T02:47:19.735Z,24.80
2017-11-10T02:49:48.606Z,24.95
2017-11-10T02:52:14.966Z,28.75
2017-11-10T02:54:45.119Z,28.52
2017-11-10T02:57:11.462Z,29.48
2017-11-10T02:59:38.541Z,29.90
2017-11-10T03:02:04.921Z,29.63
2017-11-10T03:04:31.263Z,27.87
2017-11-10T03:06:57.574Z,28.77
2017-11-10T03:09:23.910Z,28.65
2017-11-10T03:11:51.012Z,27.25
2017-11-10T03:14:17.265Z,24.20
2017-11-10T03:16:43.630Z,25.48
2017-11-10T03:19:10.024Z,27.30
2017-11-10T03:21:37.122Z,20.45
2017-11-10T03:24:03.834Z,24.85
2017-11-10T03:26:30.282Z,22.62
2017-11-10T03:28:56.630Z,23.35
2017-11-10T03:31:23.047Z,20.73
2017-11-10T03:33:51.529Z,23.23
2017-11-10T03:36:17.807Z,24.02
2017-11-10T03:38:44.141Z,19.25
2017-11-10T03:41:10.469Z,18.60
2017-11-10T03:43:40.222Z,20.20
2017-11-10T03:46:06.586Z,16.60
2017-11-10T03:48:35.783Z,18.20
2017-11-10T03:51:02.162Z,18.98
2017-11-10T03:53:28.519Z,18.33
2017-11-10T03:55:54.873Z,17.48
2017-11-10T03:58:21.222Z,15.52
2017-11-10T04:00:47.560Z,14.27
2017-11-10T04:03:13.902Z,12.37
2017-11-10T04:05:41.146Z,12.65
2017-11-10T04:08:08.242Z,15.50
2017-11-10T04:10:38.011Z,16.10
2017-11-10T04:13:04.362Z,14.35
2017-11-10T04:15:30.728Z,18.92
2017-11-10T04:17:57.066Z,22.60
2017-11-10T04:20:23.402Z,16.02
2017-11-10T04:22:49.891Z,17.08
2017-11-10T04:25:16.257Z,21.70
2017-11-10T04:27:42.669Z,19.48
2017-11-10T04:30:09.029Z,24.92
2017-11-10T04:32:35.399Z,22.23
2017-11-10T04:35:01.754Z,21.75
2017-11-10T04:37:29.591Z,24.02
2017-11-10T04:39:56.707Z,28.85
2017-11-10T04:42:23.025Z,27.87
2017-11-10T04:44:50.091Z,30.42
2017-11-10T04:47:17.151Z,37.15
2017-11-10T04:49:44.226Z,31.12
2017-11-10T04:52:10.596Z,32.03
2017-11-10T04:54:37.030Z,33.70
2017-11-10T04:57:03.374Z,39.28
2017-11-10T04:59:30.441Z,36.85
2017-11-10T05:01:57.550Z,38.78
2017-11-10T05:04:24.574Z,37.90
2017-11-10T05:06:50.920Z,37.33
2017-11-10T05:09:17.518Z,35.30
2017-11-10T05:11:45.634Z,38.17
2017-11-10T05:14:11.955Z,43.15
2017-11-10T05:16:41.014Z,35.90
2017-11-10T05:19:07.452Z,42.72
2017-11-10T05:21:33.933Z,44.53
2017-11-10T05:24:04.514Z,42.58
2017-11-10T05:26:34.029Z,39.80
2017-11-10T05:29:01.105Z,44.38
2017-11-10T05:31:27.980Z,40.65
2017-11-10T05:33:54.140Z,43.78
2017-11-10T05:36:21.221Z,41.95
2017-11-10T05:38:47.364Z,41.05
2017-11-10T05:41:14.235Z,43.78
2017-11-10T05:43:40.570Z,44.58
2017-11-10T05:46:07.275Z,40.42
2017-11-10T05:48:33.700Z,41.72
2017-11-10T05:51:00.052Z,45.40
2017-11-10T05:53:26.397Z,44.97
2017-11-10T05:55:52.729Z,43.50
2017-11-10T05:58:19.102Z,44.42
2017-11-10T06:00:45.460Z,43.28
2017-11-10T06:03:11.837Z,43.45
2017-11-10T06:05:38.157Z,43.50
2017-11-10T06:08:04.490Z,45.33
2017-11-10T06:10:30.836Z,44.65
2017-11-10T06:12:57.207Z,43.30
2017-11-10T06:15:23.614Z,41.95
2017-11-10T06:17:53.437Z,44.92
2017-11-10T06:20:20.321Z,44.70
2017-11-10T06:22:46.502Z,43.17
2017-11-10T06:25:12.657Z,46.65
2017-11-10T06:27:38.817Z,39.40
2017-11-10T06:30:05.022Z,44.42
2017-11-10T06:32:31.162Z,39.72
2017-11-10T06:34:57.507Z,45.30
2017-11-10T06:37:23.847Z,40.83
2017-11-10T06:39:50.328Z,38.47
2017-11-10T06:42:16.686Z,38.63
2017-11-10T06:44:43.773Z,39.08
2017-11-10T06:47:10.143Z,36.25
2017-11-10T06:49:36.540Z,36.95
2017-11-10T06:52:03.058Z,41.53
2017-11-10T06:54:29.414Z,43.58
2017-11-10T06:56:55.823Z,39.63
2017-11-10T06:59:22.228Z,38.08
2017-11-10T07:01:48.613Z,35.70
2017-11-10T07:04:15.578Z,33.40
2017-11-10T07:06:41.948Z,38.05
2017-11-10T07:09:08.291Z,38.92
2017-11-10T07:11:34.641Z,39.80
2017-11-10T07:14:00.946Z,39.42
2017-11-10T07:16:28.035Z,34.80
2017-11-10T07:18:54.395Z,37.10
2017-11-10T07:21:20.747Z,36.70
2017-11-10T07:23:47.083Z,32.88
2017-11-10T07:26:15.678Z,38.40
2017-11-10T07:28:42.179Z,37.85
2017-11-10T07:31:08.522Z,36.65
2017-11-10T07:33:38.098Z,37.05
2017-11-10T07:36:04.447Z,32.75
2017-11-10T07:38:31.543Z,39.45
2017-11-10T07:41:00.822Z,38.00
2017-11-10T07:43:27.270Z,33.25
2017-11-10T07:45:54.130Z,36.05
2017-11-10T07:48:21.003Z,31.45
2017-11-10T07:50:47.200Z,33.97
2017-11-10T07:53:13.309Z,34.35
2017-11-10T07:55:39.440Z,28.87
2017-11-10T07:58:05.601Z,25.95
2017-11-10T08:00:31.747Z,25.55
2017-11-10T08:02:57.896Z,27.42
2017-11-10T08:05:24.042Z,22.42
2017-11-10T08:07:50.393Z,17.77
2017-11-10T08:10:16.706Z,15.48
2017-11-10T08:12:43.773Z,13.70
2017-11-10T08:15:10.660Z,14.63
2017-11-10T08:17:36.785Z,13.10
2017-11-10T08:20:05.109Z,12.98
2017-11-10T08:22:31.470Z,11.82
2017-11-10T08:24:57.817Z,12.82
2017-11-10T08:27:24.133Z,9.95
2017-11-10T08:29:51.305Z,11.75
2017-11-10T08:32:17.694Z,9.93
2017-11-10T08:34:44.677Z,9.98
2017-11-10T08:37:11.095Z,8.88
2017-11-10T08:39:39.966Z,10.32
2017-11-10T08:42:06.316Z,12.02
2017-11-10T08:44:35.611Z,11.98
2017-11-10T08:47:01.941Z,15.32
2017-11-10T08:49:28.284Z,13.65
2017-11-10T08:51:54.663Z,16.05
2017-11-10T08:54:21.003Z,20.00
2017-11-10T08:56:47.309Z,20.62
2017-11-10T08:59:13.638Z,21.85
2017-11-10T09:01:40.697Z,24.80
2017-11-10T09:04:10.181Z,18.95
2017-11-10T09:06:36.493Z,25.58
2017-11-10T09:09:02.920Z,24.48
2017-11-10T09:11:29.241Z,23.27
2017-11-10T09:13:56.328Z,27.77
2017-11-10T09:16:22.453Z,24.15
2017-11-10T09:18:54.299Z,27.42
2017-11-10T09:21:20.674Z,23.08
2017-11-10T09:23:47.020Z,24.25
2017-11-10T09:26:14.119Z,24.08
2017-11-10T09:28:46.240Z,26.35
2017-11-10T09:31:21.695Z,28.12
2017-11-10T09:33:54.964Z,30.00
2017-11-10T09:36:27.385Z,30.88
2017-11-10T09:38:54.512Z,26.17
2017-11-10T09:41:28.474Z,29.30
2017-11-10T09:47:17.211Z,28.73
2017-11-10T09:49:49.685Z,24.58
2017-11-10T09:52:16.128Z,27.48
2017-11-10T09:54:48.831Z,35.28
2017-11-10T10:10:54.682Z,24.50
2017-11-10T10:13:22.959Z,23.70
2017-11-10T10:15:54.175Z,24.20
2017-11-10T10:31:58.895Z,19.95
2017-11-10T10:34:25.067Z,22.20
2017-11-10T10:36:52.386Z,18.90
2017-11-10T10:39:23.023Z,20.88
2017-11-10T10:41:50.179Z,18.17
2017-11-10T10:44:16.534Z,18.37
2017-11-10T10:46:43.646Z,17.58
2017-11-10T10:49:10.697Z,18.33
2017-11-10T10:51:37.024Z,16.25
2017-11-10T10:54:07.355Z,19.25
2017-11-10T10:56:33.694Z,17.52
2017-11-10T10:59:00.030Z,18.52
2017-11-10T11:01:26.367Z,16.70
2017-11-10T11:03:52.835Z,17.08
2017-11-10T11:06:19.202Z,15.70
2017-11-10T11:11:17.733Z,15.05
2017-11-10T11:13:44.078Z,17.75
2017-11-10T11:16:10.539Z,13.30
2017-11-10T11:18:36.892Z,14.60
2017-11-10T11:21:03.248Z,19.40
2017-11-10T11:23:29.605Z,16.00
2017-11-10T11:26:01.072Z,18.30
2017-11-10T11:28:27.397Z,18.85
2017-11-10T11:30:53.753Z,19.60
2017-11-10T11:33:20.130Z,18.27
2017-11-10T11:35:47.214Z,18.48
2017-11-10T11:38:13.583Z,16.83
2017-11-10T11:40:44.878Z,26.83
2017-11-10T11:43:11.276Z,18.73
2017-11-10T11:45:37.603Z,19.98
2017-11-10T11:48:03.941Z,21.45
2017-11-10T11:50:31.038Z,19.15
2017-11-10T11:52:57.384Z,19.75
2017-11-10T11:55:24.469Z,22.60
2017-11-10T11:57:50.852Z,19.83
2017-11-10T12:00:17.234Z,18.35
2017-11-10T12:02:48.503Z,20.42
2017-11-10T12:05:14.846Z,21.85
2017-11-10T12:07:41.214Z,18.70
2017-11-10T12:10:07.571Z,18.73
2017-11-10T12:12:33.951Z,20.25
2017-11-10T12:15:01.441Z,20.37
2017-11-10T12:17:28.549Z,16.10
2017-11-10T12:20:00.898Z,22.52
2017-11-10T12:22:27.980Z,19.80
2017-11-10T12:24:55.065Z,20.00
2017-11-10T12:27:21.226Z,18.20
2017-11-10T12:29:48.116Z,15.68
2017-11-10T12:32:14.256Z,19.00
2017-11-10T12:34:44.233Z,16.62
2017-11-10T12:37:10.578Z,19.35
2017-11-10T12:39:36.945Z,17.30
2017-11-10T12:42:03.316Z,15.30
2017-11-10T12:44:29.680Z,13.70
2017-11-10T12:46:56.022Z,12.15
2017-11-10T12:49:22.338Z,13.88
2017-11-10T12:51:48.770Z,12.57
2017-11-10T12:54:16.979Z,13.20
2017-11-10T12:56:43.345Z,14.70
2017-11-10T12:59:09.684Z,14.48
2017-11-10T13:01:36.037Z,16.23
2017-11-10T13:04:02.398Z,13.77
2017-11-10T13:06:29.450Z,15.77
2017-11-10T13:08:56.533Z,13.95
2017-11-10T13:11:26.957Z,14.32
2017-11-10T13:13:53.301Z,13.20
2017-11-10T13:16:19.663Z,12.07
2017-11-10T13:18:46.044Z,19.50
2017-11-10T13:21:12.359Z,15.43
2017-11-10T13:23:39.437Z,15.77
2017-11-10T13:26:11.870Z,13.90
2017-11-10T13:28:38.182Z,15.57
2017-11-10T13:31:04.532Z,13.38
2017-11-10T13:33:30.819Z,15.73
2017-11-10T13:35:57.192Z,11.57
2017-11-10T13:38:23.573Z,20.37
2017-11-10T13:40:49.907Z,17.02
2017-11-10T13:43:22.614Z,12.95
2017-11-10T13:45:49.478Z,12.40
2017-11-10T13:48:15.614Z,17.90
2017-11-10T13:50:41.982Z,13.52
2017-11-10T13:53:08.834Z,14.10
2017-11-10T13:55:35.674Z,14.35
2017-11-10T13:58:01.822Z,15.57
2017-11-10T14:00:28.902Z,12.98
2017-11-10T14:02:55.019Z,11.75
2017-11-10T14:05:21.142Z,17.17
2017-11-10T14:07:47.465Z,11.27
2017-11-10T14:10:13.794Z,13.00
2017-11-10T14:12:40.130Z,16.52
2017-11-10T14:15:06.515Z,17.42
2017-11-10T14:17:32.843Z,12.75
2017-11-10T14:19:59.169Z,16.42
2017-11-10T14:22:25.498Z,11.57
2017-11-10T14:24:51.841Z,8.27
2017-11-10T14:27:18.251Z,6.53
2017-11-10T14:29:44.586Z,6.18
2017-11-10T14:32:10.907Z,9.05
2017-11-10T14:34:37.263Z,9.30
2017-11-10T14:37:03.607Z,9.82
2017-11-10T14:39:29.917Z,9.57
2017-11-10T14:41:56.238Z,9.13
2017-11-10T14:44:22.608Z,12.40
2017-11-10T14:46:49.742Z,12.75
2017-11-10T14:49:16.067Z,10.82
2017-11-10T14:51:42.418Z,11.10
2017-11-10T14:54:08.766Z,13.43
2017-11-10T14:56:35.251Z,10.75
2017-11-10T14:59:13.047Z,10.23
2017-11-10T15:01:40.166Z,9.68
2017-11-10T15:04:10.858Z,11.12
2017-11-10T15:09:46.641Z,12.07
2017-11-10T15:12:12.758Z,9.18
2017-11-10T15:14:39.627Z,9.70
2017-11-10T15:17:05.814Z,7.22
2017-11-10T15:19:31.978Z,5.90
2017-11-10T15:21:58.106Z,8.68
2017-11-10T15:26:56.722Z,11.65
2017-11-10T15:29:23.669Z,7.78
2017-11-10T15:31:50.841Z,6.47
2017-11-10T15:34:16.973Z,5.07
2017-11-10T15:36:43.110Z,8.52
2017-11-10T15:39:09.996Z,5.80
2017-11-10T15:41:39.266Z,7.43
2017-11-10T15:44:05.420Z,10.65
2017-11-10T15:46:31.554Z,7.87
2017-11-10T15:48:57.700Z,10.35
2017-11-10T15:51:23.858Z,7.20
2017-11-10T15:53:49.994Z,5.68
2017-11-10T15:56:17.398Z,10.07
2017-11-10T15:58:49.196Z,9.98
2017-11-10T16:01:15.450Z,11.12
2017-11-10T16:03:41.594Z,11.82
2017-11-10T16:06:07.715Z,11.32
2017-11-10T16:08:33.873Z,9.60
2017-11-10T16:11:00.069Z,9.90
2017-11-10T16:13:32.312Z,9.85
2017-11-10T16:15:59.207Z,8.85
2017-11-10T16:18:25.383Z,10.68
2017-11-10T16:20:51.664Z,10.18
2017-11-10T16:23:17.872Z,12.20
2017-11-10T16:25:44.022Z,9.63
2017-11-10T16:28:15.716Z,9.73
2017-11-10T16:30:41.842Z,6.75
2017-11-10T16:33:08.944Z,9.35
2017-11-10T16:35:35.074Z,7.40
2017-11-10T16:38:01.942Z,4.72
2017-11-10T16:40:28.105Z,8.05
2017-11-10T16:42:59.757Z,10.77
2017-11-10T16:45:25.888Z,8.98
2017-11-10T16:47:52.021Z,5.35
2017-11-10T16:50:18.199Z,8.48
2017-11-10T16:52:44.351Z,13.90
2017-11-10T16:55:10.523Z,5.22
2017-11-10T16:57:36.740Z,4.53
2017-11-10T17:00:02.938Z,8.05
2017-11-10T17:02:31.122Z,11.02
2017-11-10T17:04:57.258Z,8.25
2017-11-10T17:07:23.372Z,7.57
2017-11-10T17:09:49.519Z,10.88
2017-11-10T17:12:16.725Z,9.00
2017-11-10T17:14:42.870Z,7.57
2017-11-10T17:17:09.761Z,7.80
2017-11-10T17:19:41.274Z,4.62
2017-11-10T17:22:07.410Z,10.80
2017-11-10T17:24:33.609Z,12.70
2017-11-10T17:26:59.785Z,7.87
2017-11-10T17:29:26.012Z,8.55
2017-11-10T17:31:52.200Z,6.37
2017-11-10T17:34:18.384Z,6.00
2017-11-10T17:36:46.802Z,9.52
2017-11-10T17:39:19.293Z,6.93
2017-11-10T17:41:46.178Z,10.27
2017-11-10T17:44:12.393Z,7.53
2017-11-10T17:46:38.545Z,8.00
2017-11-10T17:49:05.158Z,7.75
2017-11-10T17:51:31.281Z,6.32
2017-11-10T17:54:00.838Z,7.50
2017-11-10T17:56:26.961Z,8.00
2017-11-10T17:58:53.219Z,15.88
2017-11-10T18:01:20.077Z,12.10
2017-11-10T18:03:46.973Z,8.50
2017-11-10T18:06:13.192Z,8.57
2017-11-10T18:08:39.338Z,10.27
2017-11-10T18:11:08.769Z,10.95
2017-11-10T18:13:34.907Z,9.55
2017-11-10T18:16:01.026Z,9.73
2017-11-10T18:18:28.184Z,17.77
2017-11-10T18:20:58.115Z,13.45
2017-11-10T18:23:24.281Z,10.98
2017-11-10T18:25:50.415Z,12.52
2017-11-10T18:30:49.948Z,12.57
2017-11-10T18:33:16.090Z,16.10
2017-11-10T18:35:43.041Z,13.90
2017-11-10T18:38:09.951Z,15.90
2017-11-10T18:40:36.110Z,17.25
2017-11-10T18:43:02.284Z,8.60
2017-11-10T18:45:28.427Z,11.27
2017-11-10T18:47:54.559Z,16.02
2017-11-10T18:50:20.679Z,15.32
2017-11-10T18:52:50.136Z,12.73
2017-11-10T18:55:16.258Z,17.08
2017-11-10T18:57:42.398Z,17.05
2017-11-10T19:00:08.497Z,20.42
2017-11-10T19:02:34.645Z,14.20
2017-11-10T19:05:01.595Z,10.80
2017-11-10T19:07:27.695Z,13.88
2017-11-10T19:09:57.716Z,12.52
2017-11-10T19:12:23.850Z,11.82
2017-11-10T19:14:50.058Z,11.55
2017-11-10T19:17:16.217Z,12.88
2017-11-10T19:19:43.062Z,10.05
2017-11-10T19:22:09.146Z,12.05
2017-11-10T19:24:36.007Z,15.80
2017-11-10T19:27:07.286Z,8.18
2017-11-10T19:29:33.430Z,8.27
2017-11-10T19:31:59.616Z,10.95
2017-11-10T19:34:25.923Z,10.07
2017-11-10T19:36:52.035Z,15.00
2017-11-10T19:39:18.153Z,11.55
2017-11-10T19:41:44.274Z,11.88
2017-11-10T19:44:11.158Z,8.02
2017-11-10T19:46:38.869Z,14.77
2017-11-10T19:49:05.095Z,13.75
2017-11-10T19:51:32.015Z,14.35
2017-11-10T19:53:58.199Z,11.02
2017-11-10T19:56:24.326Z,13.15
2017-11-10T19:58:50.461Z,9.18
2017-11-10T20:01:16.596Z,9.38
2017-11-10T20:03:50.335Z,9.02
2017-11-10T20:06:17.199Z,10.70
2017-11-10T20:08:44.128Z,9.63
2017-11-10T20:11:10.281Z,13.02
2017-11-10T20:13:36.434Z,15.13
2017-11-10T20:16:02.559Z,13.05
2017-11-10T20:18:28.693Z,16.37
2017-11-10T20:20:58.053Z,18.33
2017-11-10T20:23:24.188Z,9.25
2017-11-10T20:25:51.071Z,11.50
2017-11-10T20:28:17.935Z,12.60
2017-11-10T20:30:44.814Z,7.87
2017-11-10T20:33:13.366Z,11.48
2017-11-10T20:35:40.514Z,12.18
2017-11-10T20:38:08.303Z,9.35
2017-11-10T20:40:35.427Z,8.48
2017-11-10T20:43:01.583Z,8.00
2017-11-10T20:45:27.740Z,9.82
2017-11-10T20:47:53.898Z,11.65
2017-11-10T20:50:20.766Z,8.82
2017-11-10T20:52:46.918Z,18.45
2017-11-10T20:55:13.021Z,10.93
2017-11-10T20:57:39.872Z,11.98
2017-11-10T21:00:06.730Z,7.35
2017-11-10T21:02:33.580Z,13.18
2017-11-10T21:04:59.690Z,11.40
2017-11-10T21:07:26.106Z,9.15
2017-11-10T21:09:52.226Z,9.13
2017-11-10T21:12:18.346Z,7.18
2017-11-10T21:14:44.453Z,6.97
2017-11-10T21:17:10.666Z,12.15
2017-11-10T21:19:36.846Z,16.25
2017-11-10T21:22:02.966Z,14.32
2017-11-10T21:24:29.079Z,11.85
2017-11-10T21:26:55.201Z,8.48
2017-11-10T21:29:21.390Z,12.65
2017-11-10T21:31:47.490Z,11.45
2017-11-10T21:34:13.714Z,9.07
2017-11-10T21:36:40.702Z,10.35
2017-11-10T21:39:06.825Z,12.80
2017-11-10T21:41:32.973Z,12.20
2017-11-10T21:43:59.114Z,11.12
2017-11-10T21:46:25.232Z,10.93
2017-11-10T21:48:51.349Z,11.07
2017-11-10T21:51:18.203Z,9.18
2017-11-10T21:53:45.044Z,10.60
2017-11-10T21:56:11.189Z,11.55
2017-11-10T21:58:38.109Z,14.95
2017-11-10T22:01:04.199Z,13.52
2017-11-10T22:03:30.306Z,9.23
2017-11-10T22:05:57.157Z,9.77
2017-11-10T22:08:23.347Z,11.07
2017-11-10T22:10:49.436Z,9.15
2017-11-10T22:13:15.539Z,7.20
2017-11-10T22:15:41.678Z,8.65
2017-11-10T22:18:07.794Z,12.18
2017-11-10T22:20:33.899Z,12.60
2017-11-10T22:23:00.753Z,14.73
2017-11-10T22:25:27.614Z,10.52
2017-11-10T22:27:55.106Z,11.73
2017-11-10T22:30:21.209Z,11.93
2017-11-10T22:32:47.329Z,16.40
2017-11-10T22:35:13.489Z,15.85
2017-11-10T22:37:39.801Z,9.13
2017-11-10T22:40:05.976Z,9.02
2017-11-10T22:42:32.812Z,11.65
2017-11-10T22:44:58.904Z,12.88
2017-11-10T22:47:25.933Z,10.77
2017-11-10T22:49:52.040Z,17.95
2017-11-10T22:52:18.167Z,8.95
2017-11-10T22:54:44.266Z,13.07
2017-11-10T22:57:10.549Z,12.00
2017-11-10T22:59:36.691Z,10.48
2017-11-10T23:02:02.835Z,13.82
2017-11-10T23:04:28.994Z,10.55
2017-11-10T23:06:55.854Z,9.85
2017-11-10T23:09:21.968Z,9.70
2017-11-10T23:11:48.081Z,9.48
2017-11-10T23:14:14.239Z,17.73
2017-11-10T23:16:40.340Z,9.25
2017-11-10T23:19:06.433Z,12.88
2017-11-10T23:21:33.369Z,10.95
2017-11-10T23:23:59.510Z,9.13
2017-11-10T23:26:25.630Z,7.97
2017-11-10T23:28:51.753Z,6.82
2017-11-10T23:31:18.008Z,6.12
2017-11-10T23:33:44.128Z,8.85
2017-11-10T23:36:10.258Z,7.05
2017-11-10T23:38:36.365Z,8.45
2017-11-10T23:41:03.234Z,11.68
2017-11-10T23:43:29.344Z,8.35
2017-11-10T23:45:55.453Z,8.07
2017-11-10T23:48:21.554Z,10.60
2017-11-10T23:50:47.675Z,8.65
2017-11-10T23:53:14.511Z,9.18
2017-11-10T23:55:40.616Z,9.52
2017-11-10T23:58:06.726Z,9.68
